CST,Max TemperatureF,Mean TemperatureF,Min TemperatureF,Max Dew PointF,MeanDew PointF,Min DewpointF,Max Humidity, Mean Humidity, Min Humidity, Max Sea Level PressureIn, Mean Sea Level PressureIn, Min Sea Level PressureIn, Max VisibilityMiles, Mean VisibilityMiles, Min VisibilityMiles, Max Wind SpeedMPH, Mean Wind SpeedMPH, Max Gust SpeedMPH,PrecipitationIn, CloudCover, Events, WindDirDegrees
2012-11-1,85,71,56,68,60,55,100,74,47,30.10,30.03,30.00,10,4,0,13,4,18,0.00,1,Fog,222
2012-11-2,85,73,60,72,66,61,100,79,58,30.10,30.05,30.00,10,4,0,14,5,17,0.00,1,Fog,190
2012-11-3,84,72,60,70,63,60,100,76,51,30.15,30.08,30.04,10,5,0,13,3,18,0.00,2,Fog,171
2012-11-4,80,71,61,70,63,60,100,77,54,30.14,30.08,30.04,10,5,0,18,2,26,0.66,5,Fog-Rain-Thunderstorm,53
2012-11-5,79,68,56,68,64,55,100,85,69,30.09,30.02,29.91,10,6,0,32,4,69,0.90,6,Fog-Rain-Thunderstorm,159
2012-11-6,71,61,50,54,48,44,100,70,40,30.13,30.09,30.01,10,10,7,15,6,20,0.00,0,,333
2012-11-7,77,62,47,50,45,40,93,60,27,30.18,30.13,30.08,10,10,10,14,4,18,0.00,0,,354
2012-11-8,72,60,47,51,46,40,89,64,38,30.28,30.20,30.17,10,10,10,13,6,15,0.00,0,,121
2012-11-9,77,64,51,60,56,48,96,75,54,30.23,30.18,30.14,10,10,10,14,7,20,0.00,0,,130
2012-11-10,83,70,57,65,61,56,100,74,47,30.19,30.12,30.06,10,10,7,20,11,24,0.00,3,,129
2012-11-11,74,71,68,72,69,64,100,92,84,30.10,30.04,29.98,10,7,2,17,10,22,0.22,7,Rain,154
2012-11-12,71,60,48,69,45,34,100,66,32,30.45,30.32,30.10,10,10,5,26,13,35,0.14,4,Rain,15
2012-11-13,60,50,40,37,32,28,70,51,32,30.50,30.41,30.35,10,10,10,25,12,35,0.00,0,,34
2012-11-14,65,54,42,40,35,32,76,53,30,30.41,30.35,30.29,10,10,10,15,7,17,0.00,2,,20
2012-11-15,66,53,39,40,36,32,83,57,30,30.35,30.30,30.24,10,10,10,12,5,17,0.00,0,,36
2012-11-16,67,55,43,44,41,39,83,62,40,30.37,30.32,30.28,10,10,10,15,7,22,0.00,0,,32
2012-11-17,70,56,42,43,39,36,89,59,28,30.41,30.35,30.31,10,10,10,12,5,16,0.00,0,,52
2012-11-18,71,56,40,44,39,36,89,60,31,30.35,30.31,30.27,10,10,10,10,3,15,0.00,0,,57
2012-11-19,72,57,42,49,45,40,93,66,38,30.32,30.26,30.20,10,10,8,8,1,10,0.00,0,,144
2012-11-20,77,61,45,54,48,44,93,65,36,30.27,30.21,30.16,10,7,2,8,1,13,0.00,0,,329
2012-11-21,80,64,47,59,51,46,93,66,39,30.28,30.21,30.18,10,7,1,14,4,16,0.00,0,,328
2012-11-22,76,60,44,57,49,42,93,65,36,30.26,30.21,30.17,10,10,7,10,3,15,0.00,1,,166
2012-11-23,78,65,52,63,56,48,97,76,54,30.32,30.24,30.17,10,6,0,17,5,22,T,5,Fog-Rain,18
2012-11-24,62,50,38,49,36,33,89,62,34,30.38,30.30,30.22,10,10,10,20,7,23,0.00,1,,14
2012-11-25,70,53,36,58,47,33,93,73,53,30.21,30.13,30.05,10,10,9,12,5,16,0.00,1,,144
2012-11-26,80,70,60,70,66,59,100,86,71,30.09,30.04,29.99,10,8,0,16,7,22,0.40,5,Fog-Rain-Thunderstorm,180
2012-11-27,69,58,46,66,56,44,93,81,69,30.37,30.20,30.04,10,8,1,20,9,26,0.29,6,Rain-Thunderstorm,10
2012-11-28,63,52,41,43,41,39,96,70,43,30.48,30.40,30.34,10,8,2,13,6,16,0.00,3,,47
2012-11-29,69,54,38,50,43,36,93,66,39,30.38,30.30,30.23,10,10,4,10,4,14,0.00,0,,99
2012-11-30,75,61,47,61,54,46,100,79,57,30.27,30.21,30.18,10,6,0,12,5,16,T,6,Fog-Rain,106